createdAt,value
2023-02-24T00:00:38.771Z,124.83
2023-02-24T00:03:10.903Z,119.97
2023-02-24T00:05:39.864Z,130.27
2023-02-24T00:08:08.823Z,116.00
2023-02-24T00:10:37.753Z,116.17
2023-02-24T00:13:05.436Z,113.80
2023-02-24T00:15:33.319Z,124.30
2023-02-24T00:18:07.212Z,113.77
2023-02-24T00:20:35.807Z,112.67
2023-02-24T00:23:03.714Z,113.67
2023-02-24T00:25:33.209Z,123.07
2023-02-24T00:28:01.716Z,113.00
2023-02-24T00:30:32.753Z,110.47
2023-02-24T00:33:02.381Z,95.90
2023-02-24T00:35:32.346Z,108.60
2023-02-24T00:38:00.744Z,113.13
2023-02-24T00:40:30.709Z,105.03
2023-02-24T00:43:01.933Z,96.33
2023-02-24T00:45:30.736Z,95.53
2023-02-24T00:47:58.507Z,86.10
2023-02-24T00:50:27.076Z,91.70
2023-02-24T00:52:54.771Z,86.20
2023-02-24T00:55:23.186Z,80.30
2023-02-24T00:57:51.612Z,52.73
2023-02-24T01:00:21.823Z,54.70
2023-02-24T01:02:49.727Z,56.33
2023-02-24T01:05:17.513Z,55.20
2023-02-24T01:07:45.258Z,38.83
2023-02-24T01:10:13.126Z,55.73
2023-02-24T01:12:49.825Z,38.43
2023-02-24T01:15:19.854Z,38.30
2023-02-24T01:17:49.240Z,44.40
2023-02-24T01:20:18.364Z,41.03
2023-02-24T01:22:47.060Z,29.93
2023-02-24T01:25:17.869Z,39.00
2023-02-24T01:27:45.629Z,33.40
2023-02-24T01:30:15.960Z,45.23
2023-02-24T01:32:44.796Z,34.43
2023-02-24T01:35:15.004Z,34.10
2023-02-24T01:37:42.968Z,33.47
2023-02-24T01:40:18.719Z,34.37
2023-02-24T01:42:49.393Z,34.07
2023-02-24T01:45:22.957Z,30.40
2023-02-24T01:47:51.642Z,38.80
2023-02-24T01:50:22.262Z,31.93
2023-02-24T01:52:51.781Z,28.40
2023-02-24T01:55:22.656Z,27.97
2023-02-24T01:57:51.848Z,33.83
2023-02-24T02:00:38.160Z,38.67
2023-02-24T02:03:15.280Z,34.90
2023-02-24T02:05:48.673Z,30.57
2023-02-24T02:08:17.971Z,28.47
2023-02-24T02:10:46.312Z,26.73
2023-02-24T02:13:16.071Z,36.93
2023-02-24T02:15:48.128Z,39.77
2023-02-24T02:18:19.262Z,28.63
2023-02-24T02:21:04.967Z,25.50
2023-02-24T02:23:50.930Z,18.73
2023-02-24T02:26:37.335Z,34.10
2023-02-24T02:29:22.305Z,18.77
2023-02-24T02:32:08.607Z,25.13
2023-02-24T02:34:46.184Z,20.40
2023-02-24T02:37:18.286Z,17.10
2023-02-24T02:39:50.752Z,21.23
2023-02-24T02:42:26.072Z,18.07
2023-02-24T02:44:58.720Z,24.00
2023-02-24T02:47:29.129Z,12.60
2023-02-24T02:50:01.113Z,20.33
2023-02-24T02:52:33.113Z,16.13
2023-02-24T02:55:02.436Z,18.80
2023-02-24T02:57:33.908Z,16.90
2023-02-24T03:00:10.143Z,12.97
2023-02-24T03:02:42.837Z,25.03
2023-02-24T03:05:12.773Z,12.23
2023-02-24T03:07:42.924Z,16.60
2023-02-24T03:10:20.778Z,17.30
2023-02-24T03:12:50.713Z,21.87
2023-02-24T03:15:21.157Z,15.57
2023-02-24T03:17:50.438Z,18.43
2023-02-24T03:20:23.790Z,25.53
2023-02-24T03:22:55.226Z,19.23
2023-02-24T03:25:25.233Z,50.60
2023-02-24T03:27:56.915Z,14.73
2023-02-24T03:30:28.575Z,20.00
2023-02-24T03:32:59.027Z,18.47
2023-02-24T03:35:34.663Z,17.60
2023-02-24T03:38:03.708Z,14.40
2023-02-24T03:40:37.168Z,13.13
2023-02-24T03:43:08.273Z,15.67
2023-02-24T03:45:38.186Z,14.17
2023-02-24T03:48:07.013Z,12.20
2023-02-24T03:50:38.203Z,14.93
2023-02-24T03:53:30.434Z,22.63
2023-02-24T03:56:03.685Z,11.67
2023-02-24T03:58:47.161Z,16.47
2023-02-24T04:01:18.841Z,13.47
2023-02-24T04:03:50.040Z,13.20
2023-02-24T04:06:34.657Z,14.57
2023-02-24T04:09:08.717Z,15.60
2023-02-24T04:11:47.311Z,17.50
2023-02-24T04:14:19.653Z,21.93
2023-02-24T04:16:52.156Z,18.63
2023-02-24T04:19:24.118Z,24.50
2023-02-24T04:21:55.720Z,18.13
2023-02-24T04:24:28.941Z,11.30
2023-02-24T04:26:59.416Z,15.27
2023-02-24T04:29:35.509Z,19.90
2023-02-24T04:32:06.716Z,13.67
2023-02-24T04:34:35.127Z,17.83
2023-02-24T04:37:04.990Z,12.87
2023-02-24T04:39:38.334Z,17.90
2023-02-24T04:42:10.830Z,12.77
2023-02-24T04:44:38.934Z,27.07
2023-02-24T04:47:07.243Z,17.97
2023-02-24T04:49:35.109Z,15.50
2023-02-24T04:52:02.794Z,18.90
2023-02-24T04:54:32.686Z,10.97
2023-02-24T04:57:00.680Z,14.10
2023-02-24T04:59:28.721Z,17.90
2023-02-24T05:02:01.276Z,17.63
2023-02-24T05:04:32.166Z,12.73
2023-02-24T05:07:00.236Z,21.93
2023-02-24T05:09:30.053Z,5.73
2023-02-24T05:12:00.600Z,11.03
2023-02-24T05:14:28.434Z,18.23
2023-02-24T05:17:00.242Z,8.30
2023-02-24T05:19:46.024Z,12.70
2023-02-24T05:22:14.572Z,20.60
2023-02-24T05:24:42.486Z,13.17
2023-02-24T05:27:11.791Z,13.23
2023-02-24T05:29:40.422Z,13.13
2023-02-24T05:32:08.414Z,9.40
2023-02-24T05:34:38.943Z,11.60
2023-02-24T05:37:10.778Z,18.67
2023-02-24T05:39:38.670Z,11.90
2023-02-24T05:42:07.139Z,12.43
2023-02-24T05:44:37.778Z,9.40
2023-02-24T05:47:06.148Z,8.10
2023-02-24T05:49:34.673Z,13.93
2023-02-24T05:52:07.469Z,10.23
2023-02-24T05:54:36.580Z,12.43
2023-02-24T05:57:05.410Z,7.97
2023-02-24T05:59:34.236Z,8.30
2023-02-24T06:02:07.041Z,10.13
2023-02-24T06:04:46.127Z,7.80
2023-02-24T06:07:18.794Z,12.73
2023-02-24T06:09:50.135Z,14.60
2023-02-24T06:12:18.627Z,8.47
2023-02-24T06:14:46.527Z,15.00
2023-02-24T06:17:17.258Z,12.47
2023-02-24T06:19:45.082Z,9.67
2023-02-24T06:22:13.740Z,10.57
2023-02-24T06:24:44.840Z,9.50
2023-02-24T06:27:17.618Z,9.73
2023-02-24T06:29:46.314Z,9.77
2023-02-24T06:32:15.499Z,15.30
2023-02-24T06:34:43.405Z,10.30
2023-02-24T06:37:12.231Z,7.07
2023-02-24T06:39:40.158Z,9.93
2023-02-24T06:42:08.914Z,8.57
2023-02-24T06:44:38.498Z,13.83
2023-02-24T06:47:07.732Z,13.07
2023-02-24T06:49:37.524Z,11.73
2023-02-24T06:52:05.846Z,6.37
2023-02-24T06:54:35.887Z,8.80
2023-02-24T06:57:04.339Z,11.60
2023-02-24T06:59:32.563Z,6.00
2023-02-24T07:02:01.764Z,7.67
2023-02-24T07:04:30.142Z,11.80
2023-02-24T07:07:03.053Z,12.30
2023-02-24T07:09:32.198Z,15.87
2023-02-24T07:12:02.827Z,6.27
2023-02-24T07:14:31.596Z,8.57
2023-02-24T07:16:59.530Z,7.63
2023-02-24T07:19:29.246Z,9.83
2023-02-24T07:22:00.046Z,5.83
2023-02-24T07:24:36.478Z,8.40
2023-02-24T07:27:05.304Z,13.07
2023-02-24T07:29:34.090Z,11.03
2023-02-24T07:32:03.982Z,7.20
2023-02-24T07:34:33.765Z,8.27
2023-02-24T07:37:08.429Z,8.40
2023-02-24T07:39:37.864Z,10.97
2023-02-24T07:42:06.210Z,7.90
2023-02-24T07:44:44.704Z,10.50
2023-02-24T07:47:12.434Z,10.43
2023-02-24T07:49:40.906Z,6.67
2023-02-24T07:52:10.424Z,9.50
2023-02-24T07:54:39.687Z,7.70
2023-02-24T07:57:14.362Z,10.70
2023-02-24T07:59:46.770Z,9.63
2023-02-24T08:02:15.106Z,7.67
2023-02-24T08:04:49.797Z,13.73
2023-02-24T08:07:24.734Z,11.00
2023-02-24T08:10:12.341Z,10.20
2023-02-24T08:12:42.926Z,11.17
2023-02-24T08:15:17.944Z,10.93
2023-02-24T08:17:47.363Z,8.77
2023-02-24T08:20:25.889Z,11.43
2023-02-24T08:22:54.481Z,13.30
2023-02-24T08:25:24.448Z,8.70
2023-02-24T08:28:12.489Z,7.83
2023-02-24T08:30:44.930Z,11.87
2023-02-24T08:33:16.172Z,13.17
2023-02-24T08:35:44.746Z,9.67
2023-02-24T08:38:14.959Z,12.30
2023-02-24T08:40:52.420Z,9.97
2023-02-24T08:43:33.951Z,13.80
2023-02-24T08:46:04.515Z,11.10
2023-02-24T08:48:37.438Z,7.47
2023-02-24T08:51:08.268Z,14.33
2023-02-24T08:53:40.204Z,10.93
2023-02-24T08:56:13.051Z,18.00
2023-02-24T08:58:47.061Z,11.60
2023-02-24T09:01:24.165Z,7.60
2023-02-24T09:03:54.053Z,9.87
2023-02-24T09:06:25.530Z,8.70
2023-02-24T09:09:15.032Z,8.50
2023-02-24T09:11:45.076Z,17.57
2023-02-24T09:14:25.945Z,9.43
2023-02-24T09:17:05.934Z,10.83
2023-02-24T09:19:54.548Z,7.60
2023-02-24T09:22:33.282Z,8.23
2023-02-24T09:25:21.641Z,10.87
2023-02-24T09:27:56.506Z,7.57
2023-02-24T09:30:38.781Z,12.00
2023-02-24T09:33:18.127Z,10.17
2023-02-24T09:35:46.798Z,11.20
2023-02-24T09:38:16.683Z,8.13
2023-02-24T09:40:49.786Z,7.80
2023-02-24T09:43:21.604Z,9.10
2023-02-24T09:45:54.350Z,12.27
2023-02-24T09:48:25.169Z,7.10
2023-02-24T09:51:05.207Z,6.37
2023-02-24T09:53:41.187Z,7.67
2023-02-24T09:56:16.264Z,8.03
2023-02-24T09:58:48.766Z,9.03
2023-02-24T10:01:33.760Z,11.80
2023-02-24T10:04:18.498Z,4.90
2023-02-24T10:06:49.667Z,6.70
2023-02-24T10:09:23.416Z,6.60
2023-02-24T10:11:55.514Z,6.97
2023-02-24T10:14:37.770Z,9.40
2023-02-24T10:17:24.426Z,7.67
2023-02-24T10:19:59.979Z,7.93
2023-02-24T10:22:36.019Z,8.67
2023-02-24T10:25:11.846Z,12.03
2023-02-24T10:27:44.410Z,3.73
2023-02-24T10:30:20.484Z,10.73
2023-02-24T10:32:53.297Z,10.83
2023-02-24T10:35:25.874Z,4.90
2023-02-24T10:38:02.853Z,9.20
2023-02-24T10:40:44.949Z,6.93
2023-02-24T10:43:17.849Z,4.87
2023-02-24T10:45:48.326Z,5.10
2023-02-24T10:48:42.080Z,4.20
2023-02-24T10:51:19.675Z,7.00
2023-02-24T10:53:53.223Z,3.77
2023-02-24T10:56:41.819Z,9.53
2023-02-24T10:59:28.780Z,6.50
2023-02-24T11:02:06.575Z,9.43
2023-02-24T11:04:53.925Z,6.97
2023-02-24T11:07:33.473Z,5.70
2023-02-24T11:10:11.596Z,14.70
2023-02-24T11:13:09.409Z,15.07
2023-02-24T11:16:00.801Z,7.60
2023-02-24T11:18:31.216Z,13.47
2023-02-24T11:21:00.940Z,11.30
2023-02-24T11:23:30.210Z,8.80
2023-02-24T11:26:00.987Z,7.90
2023-02-24T11:28:39.214Z,12.20
2023-02-24T11:31:17.438Z,8.17
2023-02-24T11:33:52.115Z,18.07
2023-02-24T11:36:25.423Z,8.47
2023-02-24T11:39:15.323Z,14.50
2023-02-24T11:41:46.639Z,11.37
2023-02-24T11:44:19.765Z,10.20
2023-02-24T11:46:49.746Z,17.30
2023-02-24T11:49:26.782Z,13.80
2023-02-24T11:51:55.489Z,13.73
2023-02-24T11:54:24.294Z,13.53
2023-02-24T11:56:54.285Z,17.60
2023-02-24T11:59:29.413Z,15.67
2023-02-24T12:02:00.161Z,11.17
2023-02-24T12:04:32.270Z,14.13
2023-02-24T12:07:02.801Z,10.47
2023-02-24T12:09:33.186Z,21.23
2023-02-24T12:12:03.066Z,11.83
2023-02-24T12:14:33.814Z,13.27
2023-02-24T12:17:07.722Z,12.90
2023-02-24T12:19:40.617Z,21.20
2023-02-24T12:22:12.669Z,10.07
2023-02-24T12:24:42.247Z,14.10
2023-02-24T12:27:15.661Z,15.47
2023-02-24T12:30:06.526Z,20.57
2023-02-24T12:32:42.929Z,11.67
2023-02-24T12:35:19.879Z,8.53
2023-02-24T12:37:52.059Z,10.10
2023-02-24T12:40:26.948Z,10.13
2023-02-24T12:42:58.589Z,8.00
2023-02-24T12:45:30.523Z,11.10
2023-02-24T12:48:05.611Z,13.20
2023-02-24T12:50:42.673Z,11.33
2023-02-24T12:53:14.439Z,12.30
2023-02-24T12:55:46.613Z,11.77
2023-02-24T12:58:17.013Z,9.10
2023-02-24T13:00:52.080Z,12.30
2023-02-24T13:03:32.826Z,10.23
2023-02-24T13:06:07.663Z,9.60
2023-02-24T13:08:42.298Z,10.97
2023-02-24T13:11:16.449Z,10.30
2023-02-24T13:13:48.869Z,11.07
2023-02-24T13:16:16.560Z,12.30
2023-02-24T13:18:45.346Z,15.00
2023-02-24T13:21:23.429Z,10.00
2023-02-24T13:23:57.411Z,15.00
2023-02-24T13:26:26.489Z,13.90
2023-02-24T13:29:00.581Z,14.23
2023-02-24T13:31:28.537Z,10.80
2023-02-24T13:33:56.446Z,9.97
2023-02-24T13:36:25.844Z,16.40
2023-02-24T13:39:04.675Z,9.70
2023-02-24T13:41:40.667Z,12.30
2023-02-24T13:44:26.534Z,9.60
2023-02-24T13:47:06.673Z,10.80
2023-02-24T13:49:37.750Z,9.20
2023-02-24T13:52:09.108Z,9.60
2023-02-24T13:54:48.224Z,11.00
2023-02-24T13:57:29.728Z,9.90
2023-02-24T14:00:02.178Z,9.43
2023-02-24T14:02:42.989Z,8.90
2023-02-24T14:05:14.661Z,8.60
2023-02-24T14:07:43.741Z,10.10
2023-02-24T14:10:19.011Z,22.23
2023-02-24T14:12:48.222Z,7.10
2023-02-24T14:15:17.574Z,7.47
2023-02-24T14:17:45.382Z,16.57
2023-02-24T14:20:19.161Z,7.90
2023-02-24T14:22:49.853Z,12.17
2023-02-24T14:25:18.477Z,11.50
2023-02-24T14:27:46.714Z,6.93
2023-02-24T14:30:23.164Z,8.33
2023-02-24T14:32:51.145Z,7.07
2023-02-24T14:35:20.277Z,7.80
2023-02-24T14:37:49.300Z,10.23
2023-02-24T14:40:17.281Z,8.20
2023-02-24T14:42:48.892Z,9.87
2023-02-24T14:45:18.413Z,11.10
2023-02-24T14:47:46.276Z,12.53
2023-02-24T14:50:17.030Z,12.00
2023-02-24T14:52:50.040Z,13.10
2023-02-24T14:55:21.217Z,11.50
2023-02-24T14:57:51.719Z,12.17
2023-02-24T15:00:23.891Z,9.20
2023-02-24T15:02:54.254Z,14.20
2023-02-24T15:05:22.202Z,12.37
2023-02-24T15:07:51.961Z,7.40
2023-02-24T15:10:25.899Z,7.87
2023-02-24T15:12:58.235Z,11.07
2023-02-24T15:15:28.891Z,8.00
2023-02-24T15:17:57.920Z,11.10
2023-02-24T15:20:26.794Z,9.83
2023-02-24T15:22:54.800Z,8.10
2023-02-24T15:25:33.866Z,8.70
2023-02-24T15:28:24.266Z,13.70
2023-02-24T15:30:59.865Z,11.93
2023-02-24T15:33:30.299Z,9.47
2023-02-24T15:36:00.172Z,8.57
2023-02-24T15:38:31.258Z,8.20
2023-02-24T15:41:01.721Z,7.57
2023-02-24T15:43:33.605Z,5.07
2023-02-24T15:46:02.511Z,10.83
2023-02-24T15:48:31.474Z,7.70
2023-02-24T15:51:03.081Z,8.03
2023-02-24T15:53:30.765Z,7.07
2023-02-24T15:56:00.199Z,8.13
2023-02-24T15:58:28.504Z,7.73
2023-02-24T16:00:56.208Z,6.57
2023-02-24T16:03:24.090Z,7.17
2023-02-24T16:05:52.026Z,8.53
2023-02-24T16:08:20.496Z,10.00
2023-02-24T16:10:50.274Z,8.23
2023-02-24T16:13:22.320Z,8.13
2023-02-24T16:15:53.447Z,7.33
2023-02-24T16:18:23.179Z,11.10
2023-02-24T16:20:54.176Z,10.87
2023-02-24T16:23:23.084Z,10.23
2023-02-24T16:25:51.739Z,10.93
2023-02-24T16:28:21.749Z,11.77
2023-02-24T16:30:50.440Z,11.73
2023-02-24T16:33:20.974Z,16.70
2023-02-24T16:35:50.330Z,12.50
2023-02-24T16:38:19.083Z,16.17
2023-02-24T16:40:48.649Z,13.00
2023-02-24T16:43:16.946Z,12.63
2023-02-24T16:45:46.385Z,13.47
2023-02-24T16:48:17.078Z,14.47
2023-02-24T16:50:44.835Z,12.90
2023-02-24T16:53:14.946Z,16.07
2023-02-24T16:55:43.307Z,15.50
2023-02-24T16:58:10.928Z,15.27
2023-02-24T17:00:39.367Z,17.63
2023-02-24T17:03:14.010Z,21.00
2023-02-24T17:05:41.646Z,17.10
2023-02-24T17:08:10.957Z,17.53
2023-02-24T17:10:40.152Z,22.27
2023-02-24T17:13:07.868Z,17.57
2023-02-24T17:15:35.949Z,18.17
2023-02-24T17:18:03.676Z,19.37
2023-02-24T17:20:32.715Z,18.63
2023-02-24T17:23:00.563Z,19.40
2023-02-24T17:25:28.857Z,23.67
2023-02-24T17:27:57.164Z,25.30
2023-02-24T17:30:27.495Z,22.00
2023-02-24T17:32:55.480Z,21.13
2023-02-24T17:35:23.258Z,19.53
2023-02-24T17:37:52.709Z,23.73
2023-02-24T17:40:20.897Z,23.13
2023-02-24T17:42:49.002Z,22.63
2023-02-24T17:45:17.191Z,24.13
2023-02-24T17:47:44.889Z,25.47
2023-02-24T17:50:13.565Z,24.00
2023-02-24T17:52:41.864Z,26.90
2023-02-24T17:55:36.824Z,27.60
2023-02-24T17:58:04.801Z,26.70
2023-02-24T18:00:32.657Z,29.60
2023-02-24T18:03:03.280Z,31.07
2023-02-24T18:05:31.525Z,28.33
2023-02-24T18:07:59.307Z,35.83
2023-02-24T18:10:28.552Z,32.97
2023-02-24T18:12:56.318Z,27.17
2023-02-24T18:15:24.031Z,34.00
2023-02-24T18:17:51.758Z,33.20
2023-02-24T18:20:19.693Z,32.00
2023-02-24T18:22:47.685Z,28.70
2023-02-24T18:25:15.419Z,28.63
2023-02-24T18:27:44.453Z,27.80
2023-02-24T18:30:13.137Z,29.70
2023-02-24T18:32:44.766Z,30.03
2023-02-24T18:35:13.128Z,32.73
2023-02-24T18:37:40.780Z,27.07
2023-02-24T18:40:09.380Z,28.67
2023-02-24T18:42:37.685Z,30.23
2023-02-24T18:45:07.904Z,29.90
2023-02-24T18:47:36.060Z,28.93
2023-02-24T18:50:03.755Z,28.77
2023-02-24T18:52:34.704Z,30.53
2023-02-24T18:55:02.445Z,26.47
2023-02-24T18:57:30.134Z,26.97
2023-02-24T18:59:58.044Z,27.80
2023-02-24T19:02:27.204Z,29.07
2023-02-24T19:04:55.292Z,28.03
2023-02-24T19:07:22.951Z,27.80
2023-02-24T19:09:51.251Z,28.93
2023-02-24T19:12:20.319Z,30.07
2023-02-24T19:14:51.550Z,27.53
2023-02-24T19:17:20.105Z,26.00
2023-02-24T19:19:49.072Z,26.17
2023-02-24T19:22:17.068Z,28.40
2023-02-24T19:24:44.806Z,28.07
2023-02-24T19:27:12.957Z,27.37
2023-02-24T19:29:40.852Z,33.90
2023-02-24T19:32:08.863Z,28.00
2023-02-24T19:34:37.619Z,28.50
2023-02-24T19:37:06.786Z,29.40
2023-02-24T19:39:34.494Z,26.13
2023-02-24T19:42:02.580Z,28.50
2023-02-24T19:44:30.876Z,26.07
2023-02-24T19:46:58.708Z,32.80
2023-02-24T19:49:26.381Z,28.43
2023-02-24T19:51:54.709Z,27.27
2023-02-24T19:54:23.768Z,30.73
2023-02-24T19:56:52.352Z,27.17
2023-02-24T19:59:20.119Z,28.40
2023-02-24T20:01:51.612Z,31.47
2023-02-24T20:04:22.444Z,30.30
2023-02-24T20:06:50.290Z,32.93
2023-02-24T20:09:21.231Z,32.40
2023-02-24T20:11:55.068Z,29.17
2023-02-24T20:14:23.187Z,30.97
2023-02-24T20:16:52.260Z,34.53
2023-02-24T20:19:20.551Z,29.93
2023-02-24T20:21:48.434Z,33.03
2023-02-24T20:24:17.105Z,26.83
2023-02-24T20:26:47.190Z,33.93
2023-02-24T20:29:16.532Z,26.77
2023-02-24T20:31:46.254Z,31.97
2023-02-24T20:34:18.088Z,32.13
2023-02-24T20:36:46.213Z,29.67
2023-02-24T20:39:14.302Z,30.83
2023-02-24T20:41:46.185Z,33.03
2023-02-24T20:44:14.059Z,32.40
2023-02-24T20:46:43.345Z,32.90
2023-02-24T20:49:12.671Z,34.60
2023-02-24T20:51:40.699Z,35.97
2023-02-24T20:54:10.214Z,33.83
2023-02-24T20:56:38.820Z,35.30
2023-02-24T20:59:07.530Z,37.93
2023-02-24T21:01:36.157Z,36.33
2023-02-24T21:04:06.002Z,35.57
2023-02-24T21:06:33.790Z,37.20
2023-02-24T21:09:01.497Z,36.80
2023-02-24T21:11:30.688Z,39.13
2023-02-24T21:13:59.021Z,39.97
2023-02-24T21:16:27.700Z,37.20
2023-02-24T21:18:56.322Z,38.77
2023-02-24T21:21:25.964Z,40.73
2023-02-24T21:23:53.945Z,37.57
2023-02-24T21:26:22.030Z,41.70
2023-02-24T21:28:56.839Z,39.70
2023-02-24T21:31:25.931Z,39.83
2023-02-24T21:33:53.979Z,41.10
2023-02-24T21:36:26.143Z,38.00
2023-02-24T21:38:55.848Z,42.97
2023-02-24T21:41:23.878Z,48.50
2023-02-24T21:43:55.962Z,40.40
2023-02-24T21:46:27.930Z,45.80
2023-02-24T21:48:57.028Z,39.27
2023-02-24T21:51:25.873Z,38.77
2023-02-24T21:53:56.988Z,43.93
2023-02-24T21:56:26.176Z,44.03
2023-02-24T21:58:54.773Z,44.40
2023-02-24T22:01:24.425Z,41.03
2023-02-24T22:03:54.089Z,43.83
2023-02-24T22:06:22.616Z,49.73
2023-02-24T22:08:50.572Z,40.20
2023-02-24T22:11:20.250Z,39.17
2023-02-24T22:13:48.246Z,39.63
2023-02-24T22:16:18.225Z,41.53
2023-02-24T22:18:46.651Z,38.13
2023-02-24T22:21:17.064Z,39.20
2023-02-24T22:23:45.709Z,35.43
2023-02-24T22:26:13.643Z,33.93
2023-02-24T22:28:43.905Z,31.60
2023-02-24T22:31:13.192Z,34.77
2023-02-24T22:33:41.935Z,30.07
2023-02-24T22:36:11.549Z,31.43
2023-02-24T22:38:40.068Z,34.13
2023-02-24T22:41:09.544Z,31.63
2023-02-24T22:43:37.642Z,32.97
2023-02-24T22:46:08.090Z,33.37
2023-02-24T22:48:37.460Z,32.03
2023-02-24T22:51:07.156Z,31.70
2023-02-24T22:53:36.280Z,21.33
2023-02-24T22:56:03.999Z,27.77
2023-02-24T22:58:32.748Z,23.73
2023-02-24T23:01:00.897Z,24.73
2023-02-24T23:03:31.485Z,25.37
2023-02-24T23:06:00.265Z,23.77
2023-02-24T23:08:28.282Z,22.83
2023-02-24T23:10:56.448Z,23.90
2023-02-24T23:13:24.458Z,25.90
2023-02-24T23:15:52.613Z,21.83
2023-02-24T23:18:20.238Z,23.93
2023-02-24T23:20:59.650Z,20.20
2023-02-24T23:23:27.483Z,23.97
2023-02-24T23:25:55.192Z,27.37
2023-02-24T23:28:23.361Z,21.43
2023-02-24T23:30:51.103Z,19.67
2023-02-24T23:33:19.390Z,30.30
2023-02-24T23:35:47.949Z,30.37
2023-02-24T23:38:17.148Z,17.07
2023-02-24T23:40:50.105Z,17.53
2023-02-24T23:43:18.608Z,25.90
2023-02-24T23:45:46.486Z,20.87
2023-02-24T23:48:15.853Z,15.77
2023-02-24T23:50:46.025Z,17.47
2023-02-24T23:53:13.874Z,12.57
2023-02-24T23:55:42.925Z,18.10
2023-02-24T23:58:12.185Z,18.10
